Trang Airport
VTST : now visible

Airfield :











YOU CAN JOIN US ON...

 
LOGIN :

Register | Disclaimer

   EN    FR    IT 

 









Legend :    VFR   Marginal VFR   IFR   Intensive IFR   Very Intensive IFR
Visi :
Ceiling :
>= 8 km
>= 3000ft
5 to 8 km
1000 to 3000 ft
1500m to 5 km
500 to 1000 ft
800 to 1500m
200 to 500 ft
< 800m
< 200 ft
Symbols :   Thunderstorms  Fog  Heavy snow  Heavy precipitations  Wind > 20 kt






- Airport Elevation : 67 ft
- IATA code : TST


VTST - Trang

CURRENT METAR :
  • 250200Z VRB02KT 9999 FEW030 27/25 Q1010 NOSIG

EXPIRED METARs :
  • 250100Z 00000KT 8000 4000W VCSH FEW030 25/25 Q1009 NOSIG
  • 250000Z 30003KT 270V360 7000 3500W -RA FEW004 SCT025 BKN030 24/24 Q1008 NOSIG

TAF TAF VTST
Valid from the 25 at 00:00 until the 26 at 00:00 UTC


242300Z 2500/2524 00000KT 9999 SCT020
BECMG 2502/2504 22006KT
TEMPO 2504/2508 24015G25KT 3000 TSRA FEW018CB SCT020 BKN100
BECMG 2512/2514 00000KT
VTBB FIR / Asia



MET'MAP, your aeronautical weather chart ! - Copyright ORBIFLY December 2007 - Disclaimer

ORBIFLY MET'MAP TEAM :

Programming & Development : Alexandra Zaïnal
Original concept : Baudouin d'Aumeries
Technical & hardware support : Manuel Goepfert
Assistance : Marc-Olivier Méhu




SOURCES & CREDITS :

   NOAA       Earth
Advisory